x

La Perouse Bank (46206) Wave Buoy

5:00 - Sun 21st Dec 2014 All times are PST. -8 hours from GMT.

  • Sig Wave height 11.2ft
  • Peak Period 14s
  • Wind
    18mph, 22mph gusts
  • Sea Temp 52°f
  • Aire Temp 53°f
  • Sea Pressure 1017mb
  • La Perouse Bank
  • La Perouse Bank

More Historic Weather Station data

Upgrade to MSW Pro to gain access to the past 30 days of data for over 8000 Wavebouys and Weather Stations around the globe.

Join Pro

Comparision Forecast

View Surf forecast
   
dom 12/21 5:00 11ft 14s 18 22 mph 1017mb 52f 53f
4:00 12ft 13s 18 22 mph 1015.9mb 52f 53f
3:00 13ft 13s 20 25 mph 1015.4mb 52f 53f
2:00 12.5ft 12s 18 22 mph 1014.4mb 52f 53f
1:00 12ft 12s 18 25 mph 1013.8mb 52f 53f
12:00 13.5ft 11s 18 25 mph 1013.5mb 52f 53f
11:00 13ft 13s 18 25 mph 1012.8mb 53f 53f
10:00 14ft 10s 18 25 mph 1012mb 53f 53f
9:00 13ft 12s 20 25 mph 1011.1mb 54f 52f
8:00 13ft 12s 18 22 mph 1010.2mb 54f 53f
7:00 13ft 13s 18 25 mph 1009.1mb 54f 53f
6:00 13.5ft 12s 13 18 mph 1008.2mb 54f 53f
5:00 13.5ft 14s 20 25 mph 1007.3mb 54f 53f
4:00 13ft 12s 18 22 mph 1006.6mb 54f 53f
3:00 12ft 10s 18 22 mph 1005.6mb 54f 52f
2:00 13ft 12s 18 25 mph 1004.6mb 54f 51f
1:00 14ft 12s 20 29 mph 1002.7mb 54f 52f
12:00 13.5ft 12s 22 29 mph 1001.3mb 54f 53f
sáb 12/20 11:00 14ft 14s 25 29 mph 999.8mb 54f 53f
10:00 15ft 14s 25 31 mph 997.7mb 54f 53f
9:00 14ft 10s 27 36 mph 996mb 54f 53f
8:00 14.5ft 14s 22 31 mph 994mb 54f 52f
7:00 15.5ft 14s 18 22 mph 993mb 55f 52f
6:00 14.5ft 14s 20 27 mph 993mb 54f 53f
5:00 15ft 14s 22 27 mph 992.4mb 54f 54f
4:00 15.5ft 11s 27 36 mph 991mb 54f 55f
3:00 15ft 14s 22 31 mph 990.8mb 54f 54f
2:00 16.5ft 14s 22 29 mph 991mb 54f 54f
1:00 16.5ft 14s 20 25 mph 992.1mb 54f 54f
12:00 17.5ft 14s 20 25 mph 993.2mb 54f 54f
11:00 17.5ft 16s 22 27 mph 993.8mb 54f 54f
10:00 17ft 14s 20 25 mph 994.4mb 54f 53f
9:00 17.5ft 16s 18 22 mph 995.2mb 54f 53f
8:00 18.5ft 14s 22 29 mph 995.3mb 54f 52f
7:00 19.5ft 15s 31 40 mph 995.4mb 54f 52f
6:00  -   -  36
mph
995.7mb - 51f
5:00 18.5ft 16s 29 36 mph 996.9mb 54f 52f
4:00 19.5ft 14s 29 38 mph 997.5mb 54f 51f
3:00 20ft 14s 31 40 mph 998.6mb 54f 51f
2:00 21.5ft 16s 34 40 mph 999.1mb 54f 51f
1:00 20ft 17s 31 43 mph 1000.6mb 54f 51f
vie 12/19 11:00 19.5ft 16s 31 38 mph 1002.8mb 54f 50f
10:00 19.5ft 17s 34 40 mph 1003.3mb 53f 53f
9:00 19ft 17s 34 45 mph 1004.4mb 53f 52f
8:00  -   -  31
mph
- - -
7:00 16.5ft 16s 27 34 mph 1006.3mb 53f 52f
6:00 15.5ft 17s 25 31 mph 1007.3mb 53f 52f
4:00 14ft 14s 22 27 mph 1008.4mb 53f 52f
3:00 15ft 18s 22 27 mph 1008.1mb 53f 52f
2:00 15ft 18s 20 27 mph 1008.3mb 53f 52f
1:00 14.5ft 18s 22 29 mph 1008.6mb 53f 52f
12:00 15ft 17s 25 29 mph 1008.6mb 53f 52f
11:00 14ft 11s 22 27 mph 1008.5mb 53f 52f
10:00 13.5ft 17s 20 25 mph 1008.1mb 53f 51f
9:00 14ft 10s 18 22 mph 1007.6mb 53f 51f
8:00 14ft 18s 16 20 mph 1007mb 53f 50f
7:00 14ft 10s 18 25 mph 1006.4mb 53f 50f
6:00 14ft 10s 18 22 mph 1006mb 53f 51f
5:00 12.5ft 11s 18 25 mph 1005.9mb 53f 50f
4:00 11.5ft 10s 20 36 mph 1005.7mb 53f 50f
3:00 12ft 10s 20 22 mph 1005.4mb 53f 51f
2:00 12ft 9s 18 25 mph 1004.8mb 53f 51f
1:00 12ft 9s 22 27 mph 1004.1mb 53f 51f
12:00 12.5ft 10s 20 27 mph 1003.6mb 53f 52f
jue 12/18 11:00 12ft 10s 20 25 mph 1002.9mb 53f 51f
10:00 13ft 10s 25 29 mph 1002mb 53f 53f
9:00 11ft 10s 13 16 mph 1001.7mb 53f 51f
8:00 13ft 11s 20 25 mph 1000.9mb 53f 53f
7:00 12.5ft 9s 18 22 mph 1000.5mb 53f 52f
6:00 15ft 9s 16 20 mph 1000.3mb 53f 52f
5:00 13.5ft 8s 13 18 mph 999.9mb 52f 51f
4:00 14ft 8s 36
mph
999.3mb 52f 51f
3:00 12.5ft 7s 34 45 mph 1000.3mb 53f 51f
2:00 11ft 7s 34 43 mph 1000.8mb 52f 52f
1:00 10ft 6s 31 40 mph 1002.1mb 52f 49f
12:00 10ft 6s 34
mph
1003.4mb 52f 49f
11:00 9ft 6s 34 40 mph 1004.9mb 52f 49f
10:00 7.5ft 13s 29 40 mph 1006mb 52f 50f
9:00 7ft 13s 29 36 mph 1007.1mb 52f 51f
8:00 6.5ft 14s 27 34 mph 1007.5mb 53f 51f
7:00 7ft 14s 25 29 mph 1008.6mb 52f 51f
6:00 6.5ft 13s 20 27 mph 1009.2mb 52f 50f
5:00 6.5ft 14s 18 22 mph 1010.2mb 52f 49f
4:00 7ft 13s 16 20 mph 1011mb 52f 49f
3:00 7.5ft 14s 13 16 mph 1011.2mb 52f 49f